createdAt,value
2018-05-03T00:00:55.875Z,7.68
2018-05-03T00:01:56.143Z,7.58
2018-05-03T00:02:56.376Z,7.67
2018-05-03T00:03:56.589Z,7.55
2018-05-03T00:04:56.828Z,7.52
2018-05-03T00:05:57.073Z,7.52
2018-05-03T00:06:57.298Z,7.49
2018-05-03T00:07:57.594Z,7.40
2018-05-03T00:08:57.768Z,7.42
2018-05-03T00:09:58.024Z,7.48
2018-05-03T00:10:58.253Z,7.39
2018-05-03T00:11:58.483Z,7.42
2018-05-03T00:12:58.706Z,7.42
2018-05-03T00:13:58.952Z,7.43
2018-05-03T00:14:59.182Z,7.43
2018-05-03T00:15:59.419Z,7.43
2018-05-03T00:16:59.671Z,7.46
2018-05-03T00:17:59.881Z,7.37
2018-05-03T00:19:00.112Z,7.40
2018-05-03T00:20:00.355Z,7.39
2018-05-03T00:21:00.597Z,7.45
2018-05-03T00:22:00.840Z,7.45
2018-05-03T00:23:01.075Z,7.39
2018-05-03T00:24:01.313Z,7.42
2018-05-03T00:25:01.578Z,7.45
2018-05-03T00:26:01.819Z,7.48
2018-05-03T00:27:02.052Z,7.31
2018-05-03T00:28:02.278Z,7.37
2018-05-03T00:29:02.502Z,7.46
2018-05-03T00:30:02.747Z,7.49
2018-05-03T00:31:02.969Z,7.49
2018-05-03T00:32:03.207Z,7.45
2018-05-03T00:33:03.462Z,7.43
2018-05-03T00:34:03.676Z,7.32
2018-05-03T00:35:03.902Z,7.37
2018-05-03T00:36:04.147Z,7.45
2018-05-03T00:37:04.398Z,7.31
2018-05-03T00:38:04.647Z,7.34
2018-05-03T00:39:04.854Z,7.45
2018-05-03T00:40:05.096Z,7.45
2018-05-03T00:41:05.347Z,7.25
2018-05-03T00:42:05.566Z,7.21
2018-05-03T00:43:05.795Z,7.39
2018-05-03T00:44:06.023Z,7.24
2018-05-03T00:45:06.284Z,7.17
2018-05-03T00:46:06.521Z,7.13
2018-05-03T00:47:06.753Z,7.17
2018-05-03T00:48:06.964Z,7.20
2018-05-03T00:49:07.204Z,7.09
2018-05-03T00:50:07.437Z,6.99
2018-05-03T00:51:07.687Z,7.20
2018-05-03T00:52:07.913Z,7.28
2018-05-03T00:53:08.156Z,7.17
2018-05-03T00:54:08.365Z,7.31
2018-05-03T00:55:08.606Z,7.48
2018-05-03T00:56:08.830Z,7.80
2018-05-03T00:57:09.083Z,7.77
2018-05-03T00:58:09.302Z,7.80
2018-05-03T00:59:09.541Z,7.61
2018-05-03T01:00:09.790Z,7.63
2018-05-03T01:01:10.043Z,7.82
2018-05-03T01:02:10.285Z,7.77
2018-05-03T01:03:10.489Z,7.85
2018-05-03T01:04:10.748Z,7.58
2018-05-03T01:05:10.994Z,7.45
2018-05-03T01:06:11.218Z,7.27
2018-05-03T01:07:11.436Z,7.27
2018-05-03T01:08:11.682Z,7.17
2018-05-03T01:09:11.908Z,7.17
2018-05-03T01:10:12.144Z,7.25
2018-05-03T01:11:12.373Z,7.17
2018-05-03T01:12:12.607Z,7.24
2018-05-03T01:13:12.848Z,7.25
2018-05-03T01:14:13.083Z,7.23
2018-05-03T01:15:13.324Z,7.34
2018-05-03T01:16:13.568Z,7.40
2018-05-03T01:17:13.780Z,7.30
2018-05-03T01:18:14.053Z,7.30
2018-05-03T01:19:14.243Z,7.45
2018-05-03T01:20:14.481Z,7.32
2018-05-03T01:21:14.715Z,7.32
2018-05-03T01:22:14.957Z,7.31
2018-05-03T01:23:15.205Z,7.35
2018-05-03T01:24:15.435Z,7.35
2018-05-03T01:25:15.684Z,7.30
2018-05-03T01:26:15.898Z,7.23
2018-05-03T01:27:16.152Z,7.23
2018-05-03T01:28:16.369Z,7.23
2018-05-03T01:29:16.591Z,7.23
2018-05-03T01:30:16.834Z,7.13
2018-05-03T01:31:17.064Z,7.24
2018-05-03T01:32:17.290Z,7.23
2018-05-03T01:33:17.516Z,7.30
2018-05-03T01:34:17.758Z,7.34
2018-05-03T01:35:17.983Z,7.27
2018-05-03T01:36:18.217Z,7.34
2018-05-03T01:37:18.476Z,7.16
2018-05-03T01:38:18.705Z,7.13
2018-05-03T01:39:18.930Z,7.21
2018-05-03T01:40:19.175Z,7.24
2018-05-03T01:41:19.403Z,7.20
2018-05-03T01:42:19.641Z,7.21
2018-05-03T01:43:19.871Z,7.21
2018-05-03T01:44:20.121Z,7.17
2018-05-03T01:45:20.361Z,7.16
2018-05-03T01:46:20.584Z,7.12
2018-05-03T01:47:20.830Z,6.98
2018-05-03T01:48:21.059Z,7.03
2018-05-03T01:49:21.301Z,7.21
2018-05-03T01:50:21.539Z,7.17
2018-05-03T01:51:21.773Z,7.28
2018-05-03T01:52:22.018Z,7.39
2018-05-03T01:53:22.277Z,7.37
2018-05-03T01:54:22.471Z,7.43
2018-05-03T01:55:22.717Z,7.39
2018-05-03T01:56:22.959Z,7.43
2018-05-03T01:57:23.195Z,7.42
2018-05-03T01:58:23.429Z,7.46
2018-05-03T01:59:23.685Z,7.52
2018-05-03T02:00:23.881Z,7.50
2018-05-03T02:01:24.124Z,7.46
2018-05-03T02:02:24.369Z,7.49
2018-05-03T02:03:24.606Z,7.48
2018-05-03T02:04:24.832Z,7.43
2018-05-03T02:05:25.084Z,7.45
2018-05-03T02:06:25.296Z,7.49
2018-05-03T02:07:25.565Z,7.50
2018-05-03T02:08:25.785Z,7.35
2018-05-03T02:09:26.029Z,7.40
2018-05-03T02:10:26.245Z,7.52
2018-05-03T02:11:26.485Z,7.68
2018-05-03T02:12:26.707Z,7.74
2018-05-03T02:13:26.949Z,7.83
2018-05-03T02:14:27.201Z,7.77
2018-05-03T02:15:27.421Z,7.86
2018-05-03T02:16:27.642Z,7.82
2018-05-03T02:17:27.869Z,7.80
2018-05-03T02:18:28.100Z,7.75
2018-05-03T02:19:28.345Z,7.72
2018-05-03T02:20:28.599Z,7.83
2018-05-03T02:21:28.843Z,7.82
2018-05-03T02:22:29.065Z,7.86
2018-05-03T02:23:29.311Z,7.83
2018-05-03T02:24:29.549Z,7.92
2018-05-03T02:25:29.792Z,7.87
2018-05-03T02:26:30.013Z,7.93
2018-05-03T02:27:30.281Z,8.00
2018-05-03T02:28:30.511Z,8.02
2018-05-03T02:29:30.760Z,7.97
2018-05-03T02:30:30.983Z,7.98
2018-05-03T02:31:31.214Z,8.02
2018-05-03T02:32:31.478Z,8.02
2018-05-03T02:33:31.727Z,7.95
2018-05-03T02:34:31.951Z,7.89
2018-05-03T02:35:32.177Z,7.95
2018-05-03T02:36:32.422Z,7.85
2018-05-03T02:37:32.651Z,7.80
2018-05-03T02:38:32.899Z,7.85
2018-05-03T02:39:33.143Z,7.85
2018-05-03T02:40:33.377Z,7.80
2018-05-03T02:41:33.614Z,7.85
2018-05-03T02:42:33.848Z,7.90
2018-05-03T02:43:34.063Z,7.95
2018-05-03T02:44:34.310Z,7.90
2018-05-03T02:45:34.536Z,7.92
2018-05-03T02:46:34.783Z,7.90
2018-05-03T02:47:35.015Z,7.92
2018-05-03T02:48:35.249Z,7.97
2018-05-03T02:49:35.495Z,7.90
2018-05-03T02:50:35.705Z,7.90
2018-05-03T02:51:35.979Z,7.97
2018-05-03T02:52:36.180Z,8.02
2018-05-03T02:53:36.419Z,8.04
2018-05-03T02:54:36.682Z,8.02
2018-05-03T02:55:36.897Z,8.02
2018-05-03T02:56:37.153Z,8.04
2018-05-03T02:57:37.390Z,7.98
2018-05-03T02:58:37.640Z,7.98
2018-05-03T02:59:37.854Z,7.98
2018-05-03T03:00:38.092Z,7.93
2018-05-03T03:01:38.339Z,8.05
2018-05-03T03:02:38.591Z,7.98
2018-05-03T03:03:38.824Z,7.98
2018-05-03T03:04:39.070Z,8.01
2018-05-03T03:05:39.300Z,8.00
2018-05-03T03:06:39.549Z,8.00
2018-05-03T03:07:39.755Z,7.95
2018-05-03T03:08:40.019Z,8.07
2018-05-03T03:09:40.328Z,8.02
2018-05-03T03:10:40.453Z,8.07
2018-05-03T03:11:40.689Z,8.01
2018-05-03T03:12:40.927Z,8.00
2018-05-03T03:13:41.164Z,8.07
2018-05-03T03:14:41.405Z,8.08
2018-05-03T03:15:41.648Z,7.97
2018-05-03T03:16:41.881Z,8.11
2018-05-03T03:17:42.126Z,8.12
2018-05-03T03:18:42.363Z,8.08
2018-05-03T03:19:42.593Z,8.07
2018-05-03T03:20:42.818Z,8.19
2018-05-03T03:21:43.086Z,8.12
2018-05-03T03:22:43.291Z,8.08
2018-05-03T03:23:43.536Z,8.16
2018-05-03T03:24:43.791Z,8.12
2018-05-03T03:25:44.008Z,8.12
2018-05-03T03:26:44.263Z,8.15
2018-05-03T03:27:44.502Z,8.25
2018-05-03T03:28:44.750Z,8.10
2018-05-03T03:29:44.975Z,8.10
2018-05-03T03:30:45.231Z,8.00
2018-05-03T03:31:45.460Z,8.11
2018-05-03T03:32:45.701Z,8.00
2018-05-03T03:33:45.937Z,8.08
2018-05-03T03:34:46.185Z,8.07
2018-05-03T03:35:46.405Z,8.07
2018-05-03T03:36:46.667Z,8.11
2018-05-03T03:37:46.883Z,8.10
2018-05-03T03:38:47.116Z,8.07
2018-05-03T03:39:47.355Z,7.97
2018-05-03T03:40:47.604Z,8.07
2018-05-03T03:41:47.833Z,8.11
2018-05-03T03:42:48.075Z,8.02
2018-05-03T03:43:48.315Z,8.02
2018-05-03T03:44:48.545Z,8.00
2018-05-03T03:45:48.813Z,8.07
2018-05-03T03:46:49.006Z,7.92
2018-05-03T03:47:49.248Z,7.97
2018-05-03T03:48:49.479Z,8.07
2018-05-03T03:49:49.711Z,7.90
2018-05-03T03:50:49.947Z,7.97
2018-05-03T03:51:50.177Z,7.87
2018-05-03T03:52:50.421Z,7.92
2018-05-03T03:53:50.702Z,7.89
2018-05-03T03:54:50.914Z,7.95
2018-05-03T03:55:51.119Z,7.98
2018-05-03T03:56:51.360Z,7.92
2018-05-03T03:57:51.598Z,7.93
2018-05-03T03:58:51.841Z,7.93
2018-05-03T03:59:52.073Z,7.95
2018-05-03T04:00:52.303Z,7.92
2018-05-03T04:01:52.539Z,7.95
2018-05-03T04:02:52.812Z,7.90
2018-05-03T04:03:53.022Z,7.95
2018-05-03T04:04:53.262Z,7.92
2018-05-03T04:05:53.503Z,7.97
2018-05-03T04:06:53.742Z,7.98
2018-05-03T04:07:53.989Z,8.00
2018-05-03T04:08:54.229Z,7.95
2018-05-03T04:09:54.456Z,7.97
2018-05-03T04:10:54.695Z,7.92
2018-05-03T04:11:54.934Z,7.93
2018-05-03T04:12:55.174Z,7.97
2018-05-03T04:13:55.413Z,7.87
2018-05-03T04:14:55.655Z,7.92
2018-05-03T04:15:55.893Z,7.92
2018-05-03T04:16:56.135Z,7.89
2018-05-03T04:17:56.373Z,7.93
2018-05-03T04:18:56.611Z,7.95
2018-05-03T04:19:56.866Z,7.93
2018-05-03T04:20:57.088Z,7.90
2018-05-03T04:21:57.328Z,7.95
2018-05-03T04:22:57.569Z,7.95
2018-05-03T04:23:57.807Z,8.00
2018-05-03T04:24:58.046Z,7.90
2018-05-03T04:25:58.302Z,7.93
2018-05-03T04:26:58.512Z,7.90
2018-05-03T04:27:58.756Z,7.90
2018-05-03T04:28:59.609Z,8.01
2018-05-03T04:29:59.317Z,7.98
2018-05-03T04:30:59.559Z,7.98
2018-05-03T04:31:59.789Z,8.05
2018-05-03T04:33:09.694Z,8.00
2018-05-03T04:34:01.247Z,8.10
2018-05-03T04:35:00.624Z,8.01
2018-05-03T04:36:00.827Z,8.07
2018-05-03T04:37:01.064Z,8.05
2018-05-03T04:38:01.305Z,8.15
2018-05-03T04:39:01.536Z,8.12
2018-05-03T04:40:09.413Z,8.08
2018-05-03T04:41:02.089Z,8.19
2018-05-03T04:42:02.299Z,8.08
2018-05-03T04:43:02.541Z,8.23
2018-05-03T04:44:02.774Z,8.11
2018-05-03T04:45:03.014Z,8.19
2018-05-03T04:46:03.253Z,8.22
2018-05-03T04:47:11.132Z,8.20
2018-05-03T04:48:03.799Z,8.28
2018-05-03T04:49:04.047Z,8.28
2018-05-03T04:50:04.275Z,8.40
2018-05-03T04:51:04.511Z,8.44
2018-05-03T04:52:04.749Z,8.45
2018-05-03T04:53:04.987Z,8.48
2018-05-03T04:54:05.232Z,8.55
2018-05-03T04:55:05.462Z,8.63
2018-05-03T04:56:05.705Z,8.66
2018-05-03T04:57:05.940Z,8.79
2018-05-03T04:58:06.177Z,8.70
2018-05-03T04:59:06.415Z,8.81
2018-05-03T05:00:06.654Z,8.80
2018-05-03T05:01:06.900Z,8.92
2018-05-03T05:02:07.131Z,8.95
2018-05-03T05:03:07.368Z,8.92
2018-05-03T05:04:07.609Z,9.01
2018-05-03T05:05:07.860Z,9.04
2018-05-03T05:06:08.080Z,9.05
2018-05-03T05:07:08.317Z,9.01
2018-05-03T05:08:08.556Z,9.11
2018-05-03T05:09:08.792Z,9.23
2018-05-03T05:10:09.033Z,9.24
2018-05-03T05:11:09.283Z,9.40
2018-05-03T05:12:09.516Z,9.40
2018-05-03T05:13:09.860Z,9.53
2018-05-03T05:14:09.984Z,9.64
2018-05-03T05:15:10.224Z,9.69
2018-05-03T05:16:10.465Z,9.87
2018-05-03T05:17:10.705Z,9.89
2018-05-03T05:18:10.944Z,9.94
2018-05-03T05:19:11.202Z,10.04
2018-05-03T05:20:11.423Z,9.99
2018-05-03T05:21:11.662Z,10.07
2018-05-03T05:22:11.902Z,10.05
2018-05-03T05:23:12.143Z,10.05
2018-05-03T05:24:12.386Z,10.02
2018-05-03T05:25:12.626Z,10.14
2018-05-03T05:26:12.861Z,10.22
2018-05-03T05:27:13.100Z,10.26
2018-05-03T05:28:13.337Z,10.29
2018-05-03T05:29:13.577Z,10.25
2018-05-03T05:30:13.816Z,10.38
2018-05-03T05:31:14.060Z,10.01
2018-05-03T05:32:14.298Z,9.97
2018-05-03T05:33:14.549Z,9.86
2018-05-03T05:34:14.776Z,9.91
2018-05-03T05:35:15.018Z,9.90
2018-05-03T05:36:15.258Z,9.96
2018-05-03T05:37:15.507Z,10.08
2018-05-03T05:38:15.745Z,10.14
2018-05-03T05:39:15.982Z,10.25
2018-05-03T05:40:16.221Z,10.18
2018-05-03T05:41:16.461Z,10.27
2018-05-03T05:42:16.700Z,10.22
2018-05-03T05:43:16.940Z,10.29
2018-05-03T05:44:17.266Z,10.40
2018-05-03T05:45:17.418Z,10.48
2018-05-03T05:46:17.657Z,10.48
2018-05-03T05:47:17.896Z,10.56
2018-05-03T05:48:18.138Z,10.60
2018-05-03T05:49:18.379Z,10.70
2018-05-03T05:50:18.620Z,10.67
2018-05-03T05:51:18.881Z,10.71
2018-05-03T05:52:19.100Z,10.78
2018-05-03T05:53:19.344Z,10.78
2018-05-03T05:54:19.582Z,10.81
2018-05-03T05:55:19.825Z,10.88
2018-05-03T05:56:20.065Z,10.86
2018-05-03T05:57:20.307Z,10.81
2018-05-03T05:58:20.551Z,10.76
2018-05-03T05:59:20.791Z,10.70
2018-05-03T06:00:21.030Z,10.76
2018-05-03T06:01:21.270Z,10.78
2018-05-03T06:02:21.510Z,10.79
2018-05-03T06:03:21.747Z,10.78
2018-05-03T06:04:22.093Z,10.79
2018-05-03T06:05:22.233Z,10.81
2018-05-03T06:06:22.473Z,10.67
2018-05-03T06:07:22.714Z,10.51
2018-05-03T06:08:22.957Z,10.32
2018-05-03T06:09:23.195Z,10.51
2018-05-03T06:10:23.508Z,10.67
2018-05-03T06:11:23.675Z,10.67
2018-05-03T06:12:24.013Z,10.76
2018-05-03T06:13:24.160Z,10.73
2018-05-03T06:14:24.397Z,10.66
2018-05-03T06:15:24.636Z,10.73
2018-05-03T06:16:24.877Z,10.92
2018-05-03T06:17:25.117Z,11.15
2018-05-03T06:18:25.358Z,11.14
2018-05-03T06:19:25.632Z,11.29
2018-05-03T06:20:25.841Z,11.51
2018-05-03T06:21:26.080Z,11.52
2018-05-03T06:22:26.319Z,11.72
2018-05-03T06:23:26.559Z,11.83
2018-05-03T06:24:26.792Z,11.98
2018-05-03T06:25:27.038Z,12.04
2018-05-03T06:26:27.277Z,12.07
2018-05-03T06:27:27.519Z,12.21
2018-05-03T06:28:27.762Z,12.52
2018-05-03T06:29:28.002Z,12.62
2018-05-03T06:30:28.245Z,12.75
2018-05-03T06:31:28.485Z,12.96
2018-05-03T06:32:28.731Z,12.95
2018-05-03T06:33:28.967Z,12.90
2018-05-03T06:34:29.208Z,13.15
2018-05-03T06:35:29.451Z,13.25
2018-05-03T06:36:29.692Z,13.48
2018-05-03T06:37:29.933Z,13.70
2018-05-03T06:38:30.246Z,13.92
2018-05-03T06:39:30.416Z,14.09
2018-05-03T06:40:30.658Z,14.20
2018-05-03T06:41:30.900Z,14.28
2018-05-03T06:42:31.145Z,14.25
2018-05-03T06:43:31.391Z,14.24
2018-05-03T06:44:31.629Z,14.14
2018-05-03T06:45:31.872Z,14.17
2018-05-03T06:46:32.114Z,14.24
2018-05-03T06:47:32.357Z,14.28
2018-05-03T06:48:32.600Z,14.06
2018-05-03T06:49:32.842Z,14.03
2018-05-03T06:50:33.083Z,14.07
2018-05-03T06:51:33.396Z,14.03
2018-05-03T06:52:33.571Z,14.04
2018-05-03T06:53:33.810Z,13.95
2018-05-03T06:54:34.051Z,14.02
2018-05-03T06:55:34.303Z,14.00
2018-05-03T06:56:34.539Z,13.73
2018-05-03T06:57:34.786Z,13.77
2018-05-03T06:58:35.109Z,13.81
2018-05-03T06:59:35.267Z,13.85
2018-05-03T07:00:35.513Z,13.84
2018-05-03T07:01:35.751Z,13.71
2018-05-03T07:02:35.997Z,13.69
2018-05-03T07:03:36.251Z,13.73
2018-05-03T07:04:36.475Z,13.60
2018-05-03T07:05:36.719Z,13.81
2018-05-03T07:06:36.964Z,14.17
2018-05-03T07:07:37.209Z,14.14
2018-05-03T07:08:37.457Z,14.10
2018-05-03T07:09:37.695Z,14.28
2018-05-03T07:10:37.939Z,14.45
2018-05-03T07:11:38.180Z,14.57
2018-05-03T07:12:38.424Z,14.68
2018-05-03T07:13:38.666Z,14.73
2018-05-03T07:14:38.910Z,15.07
2018-05-03T07:15:39.155Z,15.21
2018-05-03T07:16:39.393Z,15.14
2018-05-03T07:17:39.639Z,15.16
2018-05-03T07:18:39.883Z,14.89
2018-05-03T07:19:40.124Z,14.77
2018-05-03T07:20:40.370Z,14.73
2018-05-03T07:21:40.611Z,14.68
2018-05-03T07:22:40.855Z,14.72
2018-05-03T07:23:41.099Z,14.94
2018-05-03T07:24:41.341Z,14.80
2018-05-03T07:25:41.592Z,14.46
2018-05-03T07:26:41.832Z,14.45
2018-05-03T07:27:42.073Z,14.37
2018-05-03T07:28:42.314Z,14.24
2018-05-03T07:29:42.556Z,14.25
2018-05-03T07:30:42.801Z,14.25
2018-05-03T07:31:43.043Z,14.40
2018-05-03T07:32:43.286Z,14.70
2018-05-03T07:33:43.530Z,14.68
2018-05-03T07:34:43.811Z,14.64
2018-05-03T07:35:44.019Z,14.70
2018-05-03T07:36:44.264Z,14.70
2018-05-03T07:37:44.517Z,14.60
2018-05-03T07:38:44.750Z,14.36
2018-05-03T07:39:44.994Z,14.45
2018-05-03T07:40:45.339Z,14.47
2018-05-03T07:41:45.483Z,14.46
2018-05-03T07:42:45.727Z,14.46
2018-05-03T07:43:45.988Z,14.51
2018-05-03T07:44:46.217Z,14.45
2018-05-03T07:45:46.458Z,14.46
2018-05-03T07:46:46.698Z,14.57
2018-05-03T07:47:46.939Z,14.40
2018-05-03T07:48:47.182Z,14.47
2018-05-03T07:49:47.425Z,14.47
2018-05-03T07:50:47.669Z,14.25
2018-05-03T07:51:47.913Z,14.42
2018-05-03T07:52:48.162Z,14.50
2018-05-03T07:53:48.396Z,14.37
2018-05-03T07:54:48.642Z,14.50
2018-05-03T07:55:48.887Z,14.40
2018-05-03T07:56:49.132Z,14.50
2018-05-03T07:57:49.375Z,14.51
2018-05-03T07:58:49.624Z,14.39
2018-05-03T07:59:49.866Z,14.55
2018-05-03T08:00:50.106Z,14.52
2018-05-03T08:01:50.351Z,14.72
2018-05-03T08:02:50.599Z,14.75
2018-05-03T08:03:50.840Z,14.83
2018-05-03T08:04:51.083Z,14.77
2018-05-03T08:05:51.329Z,14.47
2018-05-03T08:06:51.572Z,14.47
2018-05-03T08:07:51.817Z,14.46
2018-05-03T08:08:52.064Z,14.54
2018-05-03T08:09:52.306Z,14.47
2018-05-03T08:10:52.550Z,14.57
2018-05-03T08:11:52.795Z,14.52
2018-05-03T08:12:53.039Z,14.77
2018-05-03T08:13:53.282Z,14.78
2018-05-03T08:14:53.525Z,14.68
2018-05-03T08:15:53.772Z,14.68
2018-05-03T08:16:54.017Z,14.69
2018-05-03T08:17:54.262Z,14.77
2018-05-03T08:18:54.507Z,14.68
2018-05-03T08:19:54.752Z,14.75
2018-05-03T08:20:54.996Z,14.57
2018-05-03T08:21:55.242Z,14.84
2018-05-03T08:22:55.488Z,14.88
2018-05-03T08:23:55.731Z,15.06
2018-05-03T08:24:55.977Z,14.73
2018-05-03T08:25:56.222Z,14.68
2018-05-03T08:26:56.465Z,14.78
2018-05-03T08:27:56.713Z,14.84
2018-05-03T08:28:56.952Z,14.96
2018-05-03T08:29:57.195Z,15.28
2018-05-03T08:30:57.438Z,15.39
2018-05-03T08:31:57.682Z,15.51
2018-05-03T08:32:57.930Z,15.29
2018-05-03T08:33:58.174Z,15.41
2018-05-03T08:34:58.417Z,15.74
2018-05-03T08:35:58.661Z,15.82
2018-05-03T08:36:58.907Z,15.87
2018-05-03T08:37:59.151Z,16.21
2018-05-03T08:38:59.400Z,16.33
2018-05-03T08:39:59.641Z,16.39
2018-05-03T08:40:59.882Z,16.73
2018-05-03T08:42:00.129Z,17.23
2018-05-03T08:43:00.371Z,17.68
2018-05-03T08:44:00.616Z,17.55
2018-05-03T08:45:00.864Z,17.63
2018-05-03T08:46:01.108Z,17.87
2018-05-03T08:47:01.353Z,17.81
2018-05-03T08:48:01.596Z,18.18
2018-05-03T08:49:01.844Z,18.32
2018-05-03T08:50:02.083Z,18.72
2018-05-03T08:51:02.338Z,19.04
2018-05-03T08:52:02.583Z,19.71
2018-05-03T08:53:02.830Z,18.95
2018-05-03T08:54:03.074Z,18.73
2018-05-03T08:55:03.327Z,18.60
2018-05-03T08:56:03.570Z,18.54
2018-05-03T08:57:03.819Z,18.55
2018-05-03T08:58:04.064Z,17.87
2018-05-03T08:59:04.312Z,17.52
2018-05-03T09:00:04.558Z,17.71
2018-05-03T09:01:04.804Z,17.99
2018-05-03T09:02:05.054Z,18.33
2018-05-03T09:03:05.304Z,18.30
2018-05-03T09:04:05.548Z,18.54
2018-05-03T09:05:05.798Z,18.52
2018-05-03T09:06:06.042Z,18.54
2018-05-03T09:07:06.289Z,18.08
2018-05-03T09:08:06.535Z,17.70
2018-05-03T09:09:06.782Z,17.75
2018-05-03T09:10:07.030Z,17.55
2018-05-03T09:11:07.277Z,17.52
2018-05-03T09:12:07.523Z,17.86
2018-05-03T09:13:07.771Z,17.99
2018-05-03T09:14:08.018Z,17.54
2018-05-03T09:15:08.263Z,17.15
2018-05-03T09:16:08.510Z,17.00
2018-05-03T09:17:08.758Z,17.56
2018-05-03T09:18:09.005Z,18.07
2018-05-03T09:19:09.251Z,18.27
2018-05-03T09:20:09.500Z,18.62
2018-05-03T09:21:09.742Z,18.66
2018-05-03T09:22:09.990Z,18.33
2018-05-03T09:23:10.234Z,18.27
2018-05-03T09:24:10.484Z,18.02
2018-05-03T09:25:10.729Z,18.20
2018-05-03T09:26:11.007Z,18.48
2018-05-03T09:27:11.223Z,18.78
2018-05-03T09:28:11.468Z,18.91
2018-05-03T09:29:11.717Z,19.02
2018-05-03T09:30:11.963Z,18.63
2018-05-03T09:31:12.213Z,18.80
2018-05-03T09:32:12.457Z,18.78
2018-05-03T09:33:12.705Z,18.80
2018-05-03T09:34:12.958Z,18.69
2018-05-03T09:35:13.201Z,18.08
2018-05-03T09:36:13.454Z,18.17
2018-05-03T09:37:13.695Z,18.33
2018-05-03T09:38:13.944Z,18.15
2018-05-03T09:39:14.263Z,18.20
2018-05-03T09:40:14.440Z,18.44
2018-05-03T09:41:14.685Z,18.47
2018-05-03T09:42:14.934Z,18.42
2018-05-03T09:43:15.181Z,18.57
2018-05-03T09:44:15.427Z,18.72
2018-05-03T09:45:15.676Z,18.52
2018-05-03T09:46:15.925Z,18.69
2018-05-03T09:47:16.170Z,18.87
2018-05-03T09:48:16.421Z,19.02
2018-05-03T09:49:16.677Z,18.95
2018-05-03T09:50:16.918Z,19.00
2018-05-03T09:51:17.166Z,19.18
2018-05-03T09:52:17.413Z,19.29
2018-05-03T09:53:17.661Z,19.13
2018-05-03T09:54:17.910Z,19.23
2018-05-03T09:55:18.157Z,19.32
2018-05-03T09:56:18.405Z,19.43
2018-05-03T09:57:18.653Z,19.54
2018-05-03T09:58:18.904Z,19.39
2018-05-03T09:59:19.204Z,19.00
2018-05-03T10:00:19.401Z,18.92
2018-05-03T10:01:19.645Z,18.65
2018-05-03T10:02:19.894Z,18.33
2018-05-03T10:03:20.148Z,18.44
2018-05-03T10:04:20.393Z,18.47
2018-05-03T10:05:20.642Z,18.60
2018-05-03T10:06:20.890Z,18.67
2018-05-03T10:07:21.138Z,18.80
2018-05-03T10:08:21.387Z,18.75
2018-05-03T10:09:21.634Z,18.65
2018-05-03T10:10:21.890Z,18.14
2018-05-03T10:11:22.132Z,17.56
2018-05-03T10:12:22.381Z,17.64
2018-05-03T10:13:22.638Z,17.30
2018-05-03T10:14:22.882Z,16.97
2018-05-03T10:15:23.136Z,16.86
2018-05-03T10:16:23.384Z,16.75
2018-05-03T10:17:23.619Z,17.03
2018-05-03T10:18:23.870Z,17.26
2018-05-03T10:19:24.116Z,17.56
2018-05-03T10:20:24.368Z,17.70
2018-05-03T10:21:24.612Z,17.90
2018-05-03T10:22:24.864Z,17.92
2018-05-03T10:23:25.117Z,17.92
2018-05-03T10:24:25.356Z,17.82
2018-05-03T10:25:25.608Z,17.78
2018-05-03T10:26:25.851Z,17.74
2018-05-03T10:27:26.100Z,17.75
2018-05-03T10:28:26.346Z,17.74
2018-05-03T10:29:26.593Z,17.63
2018-05-03T10:30:26.839Z,17.43
2018-05-03T10:31:27.088Z,17.81
2018-05-03T10:32:27.335Z,17.86
2018-05-03T10:33:27.582Z,17.99
2018-05-03T10:34:27.829Z,18.07
2018-05-03T10:35:28.076Z,18.42
2018-05-03T10:36:28.326Z,18.48
2018-05-03T10:37:28.573Z,18.54
2018-05-03T10:38:28.819Z,18.29
2018-05-03T10:39:29.065Z,18.17
2018-05-03T10:40:29.315Z,18.32
2018-05-03T10:41:29.563Z,18.33
2018-05-03T10:42:29.809Z,18.33
2018-05-03T10:43:30.055Z,18.57
2018-05-03T10:44:30.302Z,18.81
2018-05-03T10:45:30.560Z,19.06
2018-05-03T10:46:30.797Z,19.21
2018-05-03T10:47:31.032Z,19.08
2018-05-03T10:48:31.301Z,19.16
2018-05-03T10:49:31.547Z,19.14
2018-05-03T10:50:31.791Z,19.10
2018-05-03T10:51:32.043Z,19.26
2018-05-03T10:52:32.289Z,19.23
2018-05-03T10:53:32.533Z,19.43
2018-05-03T10:54:32.782Z,19.61
2018-05-03T10:55:33.032Z,19.59
2018-05-03T10:56:33.286Z,19.68
2018-05-03T10:57:33.611Z,19.74
2018-05-03T10:58:33.777Z,19.76
2018-05-03T10:59:34.028Z,19.63
2018-05-03T11:00:34.276Z,19.74
2018-05-03T11:01:34.528Z,19.68
2018-05-03T11:02:34.774Z,19.54
2018-05-03T11:03:35.021Z,19.46
2018-05-03T11:04:35.266Z,19.26
2018-05-03T11:05:35.604Z,19.26
2018-05-03T11:06:35.761Z,19.19
2018-05-03T11:07:36.008Z,19.41
2018-05-03T11:08:36.255Z,19.54
2018-05-03T11:09:36.503Z,19.41
2018-05-03T11:10:36.752Z,19.40
2018-05-03T11:11:37.002Z,19.23
2018-05-03T11:12:37.251Z,19.33
2018-05-03T11:13:37.498Z,19.37
2018-05-03T11:14:37.752Z,19.48
2018-05-03T11:15:37.996Z,19.50
2018-05-03T11:16:38.256Z,19.41
2018-05-03T11:17:38.491Z,19.61
2018-05-03T11:18:38.740Z,19.80
2018-05-03T11:19:38.988Z,19.81
2018-05-03T11:20:39.237Z,19.94
2018-05-03T11:21:39.487Z,20.17
2018-05-03T11:22:39.736Z,20.20
2018-05-03T11:23:39.984Z,20.35
2018-05-03T11:24:40.231Z,20.36
2018-05-03T11:25:40.482Z,20.31
2018-05-03T11:26:40.731Z,20.20
2018-05-03T11:27:40.977Z,20.52
2018-05-03T11:28:41.227Z,21.01
2018-05-03T11:29:41.475Z,21.46
2018-05-03T11:30:41.726Z,21.49
2018-05-03T11:31:41.975Z,22.05
2018-05-03T11:32:42.246Z,22.55
2018-05-03T11:33:42.473Z,22.88
2018-05-03T11:34:42.745Z,22.95
2018-05-03T11:35:42.974Z,23.04
2018-05-03T11:36:43.256Z,22.92
2018-05-03T11:37:43.475Z,22.61
2018-05-03T11:38:43.726Z,22.46
2018-05-03T11:39:43.978Z,22.51
2018-05-03T11:40:44.226Z,22.43
2018-05-03T11:41:44.475Z,22.02
2018-05-03T11:42:44.767Z,21.54
2018-05-03T11:43:44.976Z,21.58
2018-05-03T11:44:45.227Z,21.68
2018-05-03T11:45:45.476Z,21.16
2018-05-03T11:46:45.727Z,21.24
2018-05-03T11:47:45.980Z,21.47
2018-05-03T11:48:46.236Z,21.17
2018-05-03T11:49:46.476Z,21.44
2018-05-03T11:50:46.727Z,21.44
2018-05-03T11:51:46.979Z,21.01
2018-05-03T11:52:47.228Z,20.91
2018-05-03T11:53:47.476Z,20.91
2018-05-03T11:54:47.727Z,20.97
2018-05-03T11:55:47.979Z,20.95
2018-05-03T11:56:48.231Z,21.04
2018-05-03T11:57:48.482Z,21.17
2018-05-03T11:58:48.732Z,21.22
2018-05-03T11:59:48.986Z,20.70
2018-05-03T12:00:49.234Z,20.43
2018-05-03T12:01:49.485Z,20.35
2018-05-03T12:02:49.738Z,20.38
2018-05-03T12:03:49.989Z,20.43
2018-05-03T12:04:50.238Z,20.87
2018-05-03T12:05:50.489Z,21.01
2018-05-03T12:06:50.737Z,21.17
2018-05-03T12:07:50.998Z,21.04
2018-05-03T12:08:51.234Z,21.14
2018-05-03T12:09:51.487Z,21.22
2018-05-03T12:10:51.739Z,21.22
2018-05-03T12:11:52.049Z,21.28
2018-05-03T12:12:52.239Z,21.35
2018-05-03T12:13:52.491Z,21.52
2018-05-03T12:14:52.742Z,21.79
2018-05-03T12:15:52.992Z,21.84
2018-05-03T12:16:53.241Z,22.00
2018-05-03T12:17:53.492Z,21.75
2018-05-03T12:18:53.745Z,22.02
2018-05-03T12:19:53.993Z,21.86
2018-05-03T12:20:54.243Z,21.83
2018-05-03T12:21:54.493Z,22.27
2018-05-03T12:22:54.743Z,22.27
2018-05-03T12:23:54.993Z,22.40
2018-05-03T12:24:55.245Z,22.91
2018-05-03T12:25:55.500Z,22.79
2018-05-03T12:26:55.748Z,22.37
2018-05-03T12:27:56.001Z,22.00
2018-05-03T12:28:56.253Z,22.33
2018-05-03T12:29:56.500Z,22.05
2018-05-03T12:30:56.751Z,22.40
2018-05-03T12:31:57.006Z,22.37
2018-05-03T12:32:57.252Z,22.73
2018-05-03T12:33:57.504Z,22.73
2018-05-03T12:34:57.844Z,22.91
2018-05-03T12:35:58.005Z,24.13
2018-05-03T12:36:58.256Z,25.61
2018-05-03T12:37:58.509Z,26.58
2018-05-03T12:38:58.761Z,25.60
2018-05-03T12:39:59.012Z,24.99
2018-05-03T12:40:59.262Z,24.77
2018-05-03T12:41:59.517Z,24.91
2018-05-03T12:42:59.769Z,24.25
2018-05-03T12:44:00.018Z,23.91
2018-05-03T12:45:00.277Z,24.00
2018-05-03T12:46:00.521Z,23.55
2018-05-03T12:47:00.773Z,23.13
2018-05-03T12:48:01.050Z,22.65
2018-05-03T12:49:01.276Z,22.25
2018-05-03T12:50:01.529Z,22.12
2018-05-03T12:51:01.783Z,22.52
2018-05-03T12:52:02.035Z,22.92
2018-05-03T12:53:02.290Z,23.60
2018-05-03T12:54:02.541Z,23.90
2018-05-03T12:55:02.826Z,24.43
2018-05-03T12:56:03.070Z,25.61
2018-05-03T12:57:03.326Z,26.55
2018-05-03T12:58:03.578Z,26.84
2018-05-03T12:59:03.834Z,27.69
2018-05-03T13:00:04.083Z,28.15
2018-05-03T13:01:04.340Z,28.61
2018-05-03T13:02:04.593Z,28.24
2018-05-03T13:03:04.850Z,28.11
2018-05-03T13:04:05.101Z,27.59
2018-05-03T13:05:05.355Z,26.07
2018-05-03T13:06:05.614Z,25.55
2018-05-03T13:07:05.869Z,24.65